sensor_id;sensor_type;location;lat;lon;timestamp;temperature;humidity
51567;DHT22;37657;53.182;5.638;2023-03-14T00:01:51;10.80;99.90
51567;DHT22;37657;53.182;5.638;2023-03-14T00:04:17;10.90;99.90
51567;DHT22;37657;53.182;5.638;2023-03-14T00:06:43;10.80;99.90
51567;DHT22;37657;53.182;5.638;2023-03-14T00:09:08;10.70;99.90
51567;DHT22;37657;53.182;5.638;2023-03-14T00:11:34;10.70;99.90
51567;DHT22;37657;53.182;5.638;2023-03-14T00:14:00;10.70;99.90
51567;DHT22;37657;53.182;5.638;2023-03-14T00:16:26;10.70;99.90
51567;DHT22;37657;53.182;5.638;2023-03-14T00:18:51;10.60;99.90
51567;DHT22;37657;53.182;5.638;2023-03-14T00:21:18;10.50;99.90
51567;DHT22;37657;53.182;5.638;2023-03-14T00:23:44;10.50;99.90
51567;DHT22;37657;53.182;5.638;2023-03-14T00:26:15;10.40;99.90
51567;DHT22;37657;53.182;5.638;2023-03-14T00:28:42;10.40;99.90
51567;DHT22;37657;53.182;5.638;2023-03-14T00:31:09;10.30;99.90
51567;DHT22;37657;53.182;5.638;2023-03-14T00:33:35;10.30;99.90
51567;DHT22;37657;53.182;5.638;2023-03-14T00:36:04;10.30;99.90
51567;DHT22;37657;53.182;5.638;2023-03-14T00:38:31;10.30;99.90
51567;DHT22;37657;53.182;5.638;2023-03-14T00:40:57;10.20;99.90
51567;DHT22;37657;53.182;5.638;2023-03-14T00:43:23;10.20;99.90
51567;DHT22;37657;53.182;5.638;2023-03-14T00:45:50;10.20;99.90
51567;DHT22;37657;53.182;5.638;2023-03-14T00:48:17;10.20;99.90
51567;DHT22;37657;53.182;5.638;2023-03-14T00:50:43;10.20;99.90
51567;DHT22;37657;53.182;5.638;2023-03-14T00:53:08;10.20;99.90
51567;DHT22;37657;53.182;5.638;2023-03-14T00:55:42;10.30;99.90
51567;DHT22;37657;53.182;5.638;2023-03-14T00:58:09;10.30;99.90
51567;DHT22;37657;53.182;5.638;2023-03-14T01:00:35;10.30;99.90
51567;DHT22;37657;53.182;5.638;2023-03-14T01:03:02;10.30;99.90
51567;DHT22;37657;53.182;5.638;2023-03-14T01:05:27;10.30;99.90
51567;DHT22;37657;53.182;5.638;2023-03-14T01:07:53;10.30;99.90
51567;DHT22;37657;53.182;5.638;2023-03-14T01:10:19;10.30;99.90
51567;DHT22;37657;53.182;5.638;2023-03-14T01:12:44;10.40;99.90
51567;DHT22;37657;53.182;5.638;2023-03-14T01:15:10;10.30;99.90
51567;DHT22;37657;53.182;5.638;2023-03-14T01:17:36;10.30;99.90
51567;DHT22;37657;53.182;5.638;2023-03-14T01:20:03;10.40;99.90
51567;DHT22;37657;53.182;5.638;2023-03-14T01:22:30;10.30;99.90
51567;DHT22;37657;53.182;5.638;2023-03-14T01:24:56;10.30;99.90
51567;DHT22;37657;53.182;5.638;2023-03-14T01:27:21;10.30;99.90
51567;DHT22;37657;53.182;5.638;2023-03-14T01:29:47;10.30;99.90
51567;DHT22;37657;53.182;5.638;2023-03-14T01:32:13;10.30;99.90
51567;DHT22;37657;53.182;5.638;2023-03-14T01:34:38;10.30;99.90
51567;DHT22;37657;53.182;5.638;2023-03-14T01:37:04;10.30;99.90
51567;DHT22;37657;53.182;5.638;2023-03-14T01:39:29;10.30;99.90
51567;DHT22;37657;53.182;5.638;2023-03-14T01:41:55;10.20;99.90
51567;DHT22;37657;53.182;5.638;2023-03-14T01:44:20;10.30;99.90
51567;DHT22;37657;53.182;5.638;2023-03-14T01:46:46;10.30;99.90
51567;DHT22;37657;53.182;5.638;2023-03-14T01:49:31;10.20;99.90
51567;DHT22;37657;53.182;5.638;2023-03-14T01:52:21;10.30;99.90
51567;DHT22;37657;53.182;5.638;2023-03-14T01:54:50;10.20;99.90
51567;DHT22;37657;53.182;5.638;2023-03-14T01:59:48;10.20;99.90
51567;DHT22;37657;53.182;5.638;2023-03-14T02:02:17;10.20;99.90
51567;DHT22;37657;53.182;5.638;2023-03-14T02:04:43;10.20;99.90
51567;DHT22;37657;53.182;5.638;2023-03-14T02:07:16;10.20;99.90
51567;DHT22;37657;53.182;5.638;2023-03-14T02:09:43;10.20;99.90
51567;DHT22;37657;53.182;5.638;2023-03-14T02:12:09;10.20;99.90
51567;DHT22;37657;53.182;5.638;2023-03-14T02:14:37;10.10;99.90
51567;DHT22;37657;53.182;5.638;2023-03-14T02:17:05;10.10;99.90
51567;DHT22;37657;53.182;5.638;2023-03-14T02:19:53;10.10;99.90
51567;DHT22;37657;53.182;5.638;2023-03-14T02:22:21;10.10;99.90
51567;DHT22;37657;53.182;5.638;2023-03-14T02:25:00;10.20;99.90
51567;DHT22;37657;53.182;5.638;2023-03-14T02:27:28;10.20;99.90
51567;DHT22;37657;53.182;5.638;2023-03-14T02:30:07;10.20;99.90
51567;DHT22;37657;53.182;5.638;2023-03-14T02:32:36;10.10;99.90
51567;DHT22;37657;53.182;5.638;2023-03-14T02:35:09;10.10;99.90
51567;DHT22;37657;53.182;5.638;2023-03-14T02:37:41;10.20;99.90
51567;DHT22;37657;53.182;5.638;2023-03-14T02:40:08;10.10;99.90
51567;DHT22;37657;53.182;5.638;2023-03-14T02:42:34;10.10;99.90
51567;DHT22;37657;53.182;5.638;2023-03-14T02:47:56;10.10;99.90
51567;DHT22;37657;53.182;5.638;2023-03-14T02:50:26;10.10;99.90
51567;DHT22;37657;53.182;5.638;2023-03-14T02:52:52;10.00;99.90
51567;DHT22;37657;53.182;5.638;2023-03-14T02:55:21;10.00;99.90
51567;DHT22;37657;53.182;5.638;2023-03-14T02:57:47;10.00;99.90
51567;DHT22;37657;53.182;5.638;2023-03-14T03:00:13;10.00;99.90
51567;DHT22;37657;53.182;5.638;2023-03-14T03:02:40;9.90;99.90
51567;DHT22;37657;53.182;5.638;2023-03-14T03:05:05;10.00;99.90
51567;DHT22;37657;53.182;5.638;2023-03-14T03:07:31;10.00;99.90
51567;DHT22;37657;53.182;5.638;2023-03-14T03:09:56;10.00;99.90
51567;DHT22;37657;53.182;5.638;2023-03-14T03:12:22;10.00;99.90
51567;DHT22;37657;53.182;5.638;2023-03-14T03:14:48;9.90;99.90
51567;DHT22;37657;53.182;5.638;2023-03-14T03:17:13;9.90;99.90
51567;DHT22;37657;53.182;5.638;2023-03-14T03:19:39;9.90;99.90
51567;DHT22;37657;53.182;5.638;2023-03-14T03:22:04;9.90;99.90
51567;DHT22;37657;53.182;5.638;2023-03-14T03:24:30;9.90;99.90
51567;DHT22;37657;53.182;5.638;2023-03-14T03:26:55;9.90;99.90
51567;DHT22;37657;53.182;5.638;2023-03-14T03:29:21;9.80;99.90
51567;DHT22;37657;53.182;5.638;2023-03-14T03:31:47;9.80;99.90
51567;DHT22;37657;53.182;5.638;2023-03-14T03:34:13;9.80;99.90
51567;DHT22;37657;53.182;5.638;2023-03-14T03:36:39;9.90;99.90
51567;DHT22;37657;53.182;5.638;2023-03-14T03:39:04;9.90;99.90
51567;DHT22;37657;53.182;5.638;2023-03-14T03:41:30;9.90;99.90
51567;DHT22;37657;53.182;5.638;2023-03-14T03:43:57;9.90;99.90
51567;DHT22;37657;53.182;5.638;2023-03-14T03:46:22;9.90;99.90
51567;DHT22;37657;53.182;5.638;2023-03-14T03:48:48;9.90;99.90
51567;DHT22;37657;53.182;5.638;2023-03-14T03:51:15;9.90;99.90
51567;DHT22;37657;53.182;5.638;2023-03-14T03:53:41;9.90;99.90
51567;DHT22;37657;53.182;5.638;2023-03-14T03:56:07;9.90;99.90
51567;DHT22;37657;53.182;5.638;2023-03-14T03:58:33;9.90;99.90
51567;DHT22;37657;53.182;5.638;2023-03-14T04:00:58;9.90;99.90
51567;DHT22;37657;53.182;5.638;2023-03-14T04:03:24;9.90;99.90
51567;DHT22;37657;53.182;5.638;2023-03-14T04:06:04;9.90;99.90
51567;DHT22;37657;53.182;5.638;2023-03-14T04:08:30;9.90;99.90
51567;DHT22;37657;53.182;5.638;2023-03-14T04:10:57;9.90;99.90
51567;DHT22;37657;53.182;5.638;2023-03-14T04:13:23;9.90;99.90
51567;DHT22;37657;53.182;5.638;2023-03-14T04:15:50;10.00;99.90
51567;DHT22;37657;53.182;5.638;2023-03-14T04:18:15;9.90;99.90
51567;DHT22;37657;53.182;5.638;2023-03-14T04:20:41;9.90;99.90
51567;DHT22;37657;53.182;5.638;2023-03-14T04:23:07;9.90;99.90
51567;DHT22;37657;53.182;5.638;2023-03-14T04:25:32;9.90;99.90
51567;DHT22;37657;53.182;5.638;2023-03-14T04:27:58;9.80;99.90
51567;DHT22;37657;53.182;5.638;2023-03-14T04:30:23;9.80;99.90
51567;DHT22;37657;53.182;5.638;2023-03-14T04:32:49;9.80;99.90
51567;DHT22;37657;53.182;5.638;2023-03-14T04:35:14;9.80;99.90
51567;DHT22;37657;53.182;5.638;2023-03-14T04:37:40;9.70;99.90
51567;DHT22;37657;53.182;5.638;2023-03-14T04:40:07;9.70;99.90
51567;DHT22;37657;53.182;5.638;2023-03-14T04:42:33;9.80;99.90
51567;DHT22;37657;53.182;5.638;2023-03-14T04:44:59;9.80;99.90
51567;DHT22;37657;53.182;5.638;2023-03-14T04:47:25;9.70;99.90
51567;DHT22;37657;53.182;5.638;2023-03-14T04:49:51;9.70;99.90
51567;DHT22;37657;53.182;5.638;2023-03-14T04:52:17;9.70;99.90
51567;DHT22;37657;53.182;5.638;2023-03-14T04:54:42;9.70;99.90
51567;DHT22;37657;53.182;5.638;2023-03-14T04:57:08;9.70;99.90
51567;DHT22;37657;53.182;5.638;2023-03-14T04:59:33;9.70;99.90
51567;DHT22;37657;53.182;5.638;2023-03-14T05:01:59;9.70;99.90
51567;DHT22;37657;53.182;5.638;2023-03-14T05:04:25;9.70;99.90
51567;DHT22;37657;53.182;5.638;2023-03-14T05:06:50;9.60;99.90
51567;DHT22;37657;53.182;5.638;2023-03-14T05:09:16;9.60;99.90
51567;DHT22;37657;53.182;5.638;2023-03-14T05:11:41;9.60;99.90
51567;DHT22;37657;53.182;5.638;2023-03-14T05:14:07;9.60;99.90
51567;DHT22;37657;53.182;5.638;2023-03-14T05:16:32;9.50;99.90
51567;DHT22;37657;53.182;5.638;2023-03-14T05:18:58;9.60;99.90
51567;DHT22;37657;53.182;5.638;2023-03-14T05:21:24;9.40;99.90
51567;DHT22;37657;53.182;5.638;2023-03-14T05:23:49;9.60;99.90
51567;DHT22;37657;53.182;5.638;2023-03-14T05:26:15;9.60;99.90
51567;DHT22;37657;53.182;5.638;2023-03-14T05:28:42;9.60;99.90
51567;DHT22;37657;53.182;5.638;2023-03-14T05:31:08;9.60;99.90
51567;DHT22;37657;53.182;5.638;2023-03-14T05:33:34;9.60;99.90
51567;DHT22;37657;53.182;5.638;2023-03-14T05:35:59;9.70;99.90
51567;DHT22;37657;53.182;5.638;2023-03-14T05:38:25;9.40;99.90
51567;DHT22;37657;53.182;5.638;2023-03-14T05:40:51;9.20;99.90
51567;DHT22;37657;53.182;5.638;2023-03-14T05:43:16;9.00;99.90
51567;DHT22;37657;53.182;5.638;2023-03-14T05:45:42;8.80;99.90
51567;DHT22;37657;53.182;5.638;2023-03-14T05:48:08;8.60;99.90
51567;DHT22;37657;53.182;5.638;2023-03-14T05:50:34;8.40;99.90
51567;DHT22;37657;53.182;5.638;2023-03-14T05:52:59;8.30;99.90
51567;DHT22;37657;53.182;5.638;2023-03-14T05:55:25;8.10;99.90
51567;DHT22;37657;53.182;5.638;2023-03-14T05:57:51;7.70;99.90
51567;DHT22;37657;53.182;5.638;2023-03-14T06:00:18;7.30;99.90
51567;DHT22;37657;53.182;5.638;2023-03-14T06:02:43;6.90;99.90
51567;DHT22;37657;53.182;5.638;2023-03-14T06:05:09;6.70;99.90
51567;DHT22;37657;53.182;5.638;2023-03-14T06:07:34;6.60;99.90
51567;DHT22;37657;53.182;5.638;2023-03-14T06:10:00;6.40;99.90
51567;DHT22;37657;53.182;5.638;2023-03-14T06:12:25;6.20;99.90
51567;DHT22;37657;53.182;5.638;2023-03-14T06:14:51;6.20;99.90
51567;DHT22;37657;53.182;5.638;2023-03-14T06:17:17;6.00;99.90
51567;DHT22;37657;53.182;5.638;2023-03-14T06:19:42;6.10;99.90
51567;DHT22;37657;53.182;5.638;2023-03-14T06:22:08;5.70;99.90
51567;DHT22;37657;53.182;5.638;2023-03-14T06:24:33;5.60;99.90
51567;DHT22;37657;53.182;5.638;2023-03-14T06:26:59;5.60;99.90
51567;DHT22;37657;53.182;5.638;2023-03-14T06:29:24;5.60;99.90
51567;DHT22;37657;53.182;5.638;2023-03-14T06:31:50;5.50;99.90
51567;DHT22;37657;53.182;5.638;2023-03-14T06:34:15;5.40;99.90
51567;DHT22;37657;53.182;5.638;2023-03-14T06:36:41;5.50;99.90
51567;DHT22;37657;53.182;5.638;2023-03-14T06:39:06;5.30;99.90
51567;DHT22;37657;53.182;5.638;2023-03-14T06:41:32;5.40;99.90
51567;DHT22;37657;53.182;5.638;2023-03-14T06:43:58;5.30;99.90
51567;DHT22;37657;53.182;5.638;2023-03-14T06:46:23;5.30;99.90
51567;DHT22;37657;53.182;5.638;2023-03-14T06:48:49;5.40;99.90
51567;DHT22;37657;53.182;5.638;2023-03-14T06:51:14;5.30;99.90
51567;DHT22;37657;53.182;5.638;2023-03-14T06:53:40;5.30;99.90
51567;DHT22;37657;53.182;5.638;2023-03-14T06:56:06;5.30;99.90
51567;DHT22;37657;53.182;5.638;2023-03-14T06:58:32;5.30;99.90
51567;DHT22;37657;53.182;5.638;2023-03-14T07:00:57;5.30;99.90
51567;DHT22;37657;53.182;5.638;2023-03-14T07:03:24;5.30;99.90
51567;DHT22;37657;53.182;5.638;2023-03-14T07:05:50;5.30;99.90
51567;DHT22;37657;53.182;5.638;2023-03-14T07:08:15;5.20;99.90
51567;DHT22;37657;53.182;5.638;2023-03-14T07:10:41;5.20;99.90
51567;DHT22;37657;53.182;5.638;2023-03-14T07:13:07;5.20;99.90
51567;DHT22;37657;53.182;5.638;2023-03-14T07:15:32;5.20;99.90
51567;DHT22;37657;53.182;5.638;2023-03-14T07:17:58;5.20;99.90
51567;DHT22;37657;53.182;5.638;2023-03-14T07:20:24;5.20;99.90
51567;DHT22;37657;53.182;5.638;2023-03-14T07:22:50;5.20;99.90
51567;DHT22;37657;53.182;5.638;2023-03-14T07:25:16;5.30;99.90
51567;DHT22;37657;53.182;5.638;2023-03-14T07:27:46;5.30;99.90
51567;DHT22;37657;53.182;5.638;2023-03-14T07:30:13;5.30;99.90
51567;DHT22;37657;53.182;5.638;2023-03-14T07:32:39;5.30;99.90
51567;DHT22;37657;53.182;5.638;2023-03-14T07:35:05;5.40;99.90
51567;DHT22;37657;53.182;5.638;2023-03-14T07:37:31;5.40;99.90
51567;DHT22;37657;53.182;5.638;2023-03-14T07:39:57;5.40;99.90
51567;DHT22;37657;53.182;5.638;2023-03-14T07:42:22;5.50;99.90
51567;DHT22;37657;53.182;5.638;2023-03-14T07:44:48;5.50;99.90
51567;DHT22;37657;53.182;5.638;2023-03-14T07:47:13;5.80;99.90
51567;DHT22;37657;53.182;5.638;2023-03-14T07:49:39;5.60;99.90
51567;DHT22;37657;53.182;5.638;2023-03-14T07:52:05;5.60;99.90
51567;DHT22;37657;53.182;5.638;2023-03-14T07:54:30;5.70;99.90
51567;DHT22;37657;53.182;5.638;2023-03-14T07:56:56;5.80;99.90
51567;DHT22;37657;53.182;5.638;2023-03-14T07:59:24;5.80;99.90
51567;DHT22;37657;53.182;5.638;2023-03-14T08:01:49;5.90;99.90
51567;DHT22;37657;53.182;5.638;2023-03-14T08:04:15;5.90;99.90
51567;DHT22;37657;53.182;5.638;2023-03-14T08:06:40;6.00;99.90
51567;DHT22;37657;53.182;5.638;2023-03-14T08:09:06;6.00;99.90
51567;DHT22;37657;53.182;5.638;2023-03-14T08:11:31;6.00;99.90
51567;DHT22;37657;53.182;5.638;2023-03-14T08:13:57;6.20;99.90
51567;DHT22;37657;53.182;5.638;2023-03-14T08:16:23;6.20;99.90
51567;DHT22;37657;53.182;5.638;2023-03-14T08:18:48;6.30;99.90
51567;DHT22;37657;53.182;5.638;2023-03-14T08:21:14;6.40;99.90
51567;DHT22;37657;53.182;5.638;2023-03-14T08:23:40;6.40;99.90
51567;DHT22;37657;53.182;5.638;2023-03-14T08:26:06;6.50;99.90
51567;DHT22;37657;53.182;5.638;2023-03-14T08:28:31;6.50;99.90
51567;DHT22;37657;53.182;5.638;2023-03-14T08:30:59;6.50;99.90
51567;DHT22;37657;53.182;5.638;2023-03-14T08:33:26;6.50;99.90
51567;DHT22;37657;53.182;5.638;2023-03-14T08:35:57;6.30;99.90
51567;DHT22;37657;53.182;5.638;2023-03-14T08:38:23;6.10;99.90
51567;DHT22;37657;53.182;5.638;2023-03-14T08:40:48;5.90;99.90
51567;DHT22;37657;53.182;5.638;2023-03-14T08:43:15;5.80;99.90
51567;DHT22;37657;53.182;5.638;2023-03-14T08:45:41;5.80;99.90
51567;DHT22;37657;53.182;5.638;2023-03-14T08:48:06;6.10;99.90
51567;DHT22;37657;53.182;5.638;2023-03-14T08:50:32;6.00;99.90
51567;DHT22;37657;53.182;5.638;2023-03-14T08:52:58;6.10;99.90
51567;DHT22;37657;53.182;5.638;2023-03-14T08:55:25;6.10;99.90
51567;DHT22;37657;53.182;5.638;2023-03-14T08:57:53;6.20;99.90
51567;DHT22;37657;53.182;5.638;2023-03-14T09:00:19;6.30;99.90
51567;DHT22;37657;53.182;5.638;2023-03-14T09:02:45;6.50;99.90
51567;DHT22;37657;53.182;5.638;2023-03-14T09:05:11;6.40;99.90
51567;DHT22;37657;53.182;5.638;2023-03-14T09:07:37;6.50;99.90
51567;DHT22;37657;53.182;5.638;2023-03-14T09:10:03;6.50;99.90
51567;DHT22;37657;53.182;5.638;2023-03-14T09:12:29;6.70;99.90
51567;DHT22;37657;53.182;5.638;2023-03-14T09:14:54;6.50;99.90
51567;DHT22;37657;53.182;5.638;2023-03-14T09:17:20;6.60;99.90
51567;DHT22;37657;53.182;5.638;2023-03-14T09:19:46;6.60;99.90
51567;DHT22;37657;53.182;5.638;2023-03-14T09:22:11;6.60;99.90
51567;DHT22;37657;53.182;5.638;2023-03-14T09:24:37;6.50;99.90
51567;DHT22;37657;53.182;5.638;2023-03-14T09:27:02;6.50;99.90
51567;DHT22;37657;53.182;5.638;2023-03-14T09:29:28;6.70;99.90
51567;DHT22;37657;53.182;5.638;2023-03-14T09:31:53;6.70;99.90
51567;DHT22;37657;53.182;5.638;2023-03-14T09:34:19;6.80;99.90
51567;DHT22;37657;53.182;5.638;2023-03-14T09:36:45;6.80;99.90
51567;DHT22;37657;53.182;5.638;2023-03-14T09:39:11;6.90;99.90
51567;DHT22;37657;53.182;5.638;2023-03-14T09:41:40;6.90;99.90
51567;DHT22;37657;53.182;5.638;2023-03-14T09:44:13;6.80;99.90
51567;DHT22;37657;53.182;5.638;2023-03-14T09:46:41;6.80;99.90
51567;DHT22;37657;53.182;5.638;2023-03-14T09:51:47;7.00;99.90
51567;DHT22;37657;53.182;5.638;2023-03-14T09:54:26;6.90;99.90
51567;DHT22;37657;53.182;5.638;2023-03-14T09:56:52;7.00;99.90
51567;DHT22;37657;53.182;5.638;2023-03-14T09:59:18;7.00;99.90
51567;DHT22;37657;53.182;5.638;2023-03-14T10:01:43;7.10;99.90
51567;DHT22;37657;53.182;5.638;2023-03-14T10:04:15;7.10;99.90
51567;DHT22;37657;53.182;5.638;2023-03-14T10:06:42;7.20;99.90
51567;DHT22;37657;53.182;5.638;2023-03-14T10:09:19;7.30;99.90
51567;DHT22;37657;53.182;5.638;2023-03-14T10:11:51;7.10;99.90
51567;DHT22;37657;53.182;5.638;2023-03-14T10:14:32;7.00;99.90
51567;DHT22;37657;53.182;5.638;2023-03-14T10:17:09;7.00;99.90
51567;DHT22;37657;53.182;5.638;2023-03-14T10:19:36;6.90;99.90
51567;DHT22;37657;53.182;5.638;2023-03-14T10:22:04;6.80;99.90
51567;DHT22;37657;53.182;5.638;2023-03-14T10:24:36;7.00;99.90
51567;DHT22;37657;53.182;5.638;2023-03-14T10:27:17;7.10;99.90
51567;DHT22;37657;53.182;5.638;2023-03-14T10:30:01;7.00;99.90
51567;DHT22;37657;53.182;5.638;2023-03-14T10:32:39;7.10;99.90
51567;DHT22;37657;53.182;5.638;2023-03-14T10:37:56;7.00;99.90
51567;DHT22;37657;53.182;5.638;2023-03-14T10:40:32;6.90;99.90
51567;DHT22;37657;53.182;5.638;2023-03-14T10:42:59;7.00;99.90
51567;DHT22;37657;53.182;5.638;2023-03-14T10:45:33;7.10;99.90
51567;DHT22;37657;53.182;5.638;2023-03-14T10:48:30;7.10;99.90
51567;DHT22;37657;53.182;5.638;2023-03-14T10:50:56;7.10;99.90
51567;DHT22;37657;53.182;5.638;2023-03-14T10:53:22;7.10;99.90
51567;DHT22;37657;53.182;5.638;2023-03-14T10:55:47;7.10;99.90
51567;DHT22;37657;53.182;5.638;2023-03-14T10:58:32;7.10;99.90
51567;DHT22;37657;53.182;5.638;2023-03-14T11:03:42;7.10;99.90
51567;DHT22;37657;53.182;5.638;2023-03-14T11:06:21;7.10;99.90
51567;DHT22;37657;53.182;5.638;2023-03-14T11:09:21;7.10;99.90
51567;DHT22;37657;53.182;5.638;2023-03-14T11:11:48;7.20;99.90
51567;DHT22;37657;53.182;5.638;2023-03-14T11:14:27;7.10;99.90
51567;DHT22;37657;53.182;5.638;2023-03-14T11:27:48;7.40;99.90
51567;DHT22;37657;53.182;5.638;2023-03-14T11:30:19;7.50;99.90
51567;DHT22;37657;53.182;5.638;2023-03-14T11:33:03;7.60;99.90
51567;DHT22;37657;53.182;5.638;2023-03-14T11:35:39;7.50;99.90
51567;DHT22;37657;53.182;5.638;2023-03-14T11:38:33;7.40;99.90
51567;DHT22;37657;53.182;5.638;2023-03-14T11:41:00;7.50;99.90
51567;DHT22;37657;53.182;5.638;2023-03-14T11:43:35;7.40;99.90
51567;DHT22;37657;53.182;5.638;2023-03-14T11:51:35;7.30;99.90
51567;DHT22;37657;53.182;5.638;2023-03-14T11:54:14;7.40;99.90
51567;DHT22;37657;53.182;5.638;2023-03-14T11:56:50;7.50;99.90
51567;DHT22;37657;53.182;5.638;2023-03-14T12:01:59;7.50;99.90
51567;DHT22;37657;53.182;5.638;2023-03-14T12:07:13;7.40;99.90
51567;DHT22;37657;53.182;5.638;2023-03-14T12:09:40;7.30;99.90
51567;DHT22;37657;53.182;5.638;2023-03-14T12:12:06;7.10;99.90
51567;DHT22;37657;53.182;5.638;2023-03-14T12:14:37;7.00;99.90
51567;DHT22;37657;53.182;5.638;2023-03-14T12:19:39;7.20;99.90
51567;DHT22;37657;53.182;5.638;2023-03-14T12:22:29;7.10;99.90
51567;DHT22;37657;53.182;5.638;2023-03-14T12:25:14;7.20;99.90
51567;DHT22;37657;53.182;5.638;2023-03-14T12:27:49;7.20;99.90
51567;DHT22;37657;53.182;5.638;2023-03-14T12:30:16;7.30;99.90
51567;DHT22;37657;53.182;5.638;2023-03-14T12:35:42;7.10;99.90
51567;DHT22;37657;53.182;5.638;2023-03-14T12:43:40;7.20;99.90
51567;DHT22;37657;53.182;5.638;2023-03-14T12:46:19;7.10;99.90
51567;DHT22;37657;53.182;5.638;2023-03-14T12:51:37;7.40;99.90
51567;DHT22;37657;53.182;5.638;2023-03-14T12:54:40;7.50;99.90
51567;DHT22;37657;53.182;5.638;2023-03-14T12:59:47;7.20;99.90
51567;DHT22;37657;53.182;5.638;2023-03-14T13:05:03;7.10;99.90
51567;DHT22;37657;53.182;5.638;2023-03-14T13:07:36;7.20;99.90
51567;DHT22;37657;53.182;5.638;2023-03-14T13:10:42;7.20;99.90
51567;DHT22;37657;53.182;5.638;2023-03-14T13:13:23;7.20;99.90
51567;DHT22;37657;53.182;5.638;2023-03-14T13:15:55;7.30;99.90
51567;DHT22;37657;53.182;5.638;2023-03-14T13:18:40;7.30;99.90
51567;DHT22;37657;53.182;5.638;2023-03-14T13:21:24;7.40;99.90
51567;DHT22;37657;53.182;5.638;2023-03-14T13:24:23;7.40;99.90
51567;DHT22;37657;53.182;5.638;2023-03-14T13:26:49;7.40;99.90
51567;DHT22;37657;53.182;5.638;2023-03-14T13:29:26;7.30;99.90
51567;DHT22;37657;53.182;5.638;2023-03-14T13:31:57;7.20;99.90
51567;DHT22;37657;53.182;5.638;2023-03-14T13:34:29;7.20;99.90
51567;DHT22;37657;53.182;5.638;2023-03-14T13:36:55;7.30;99.90
51567;DHT22;37657;53.182;5.638;2023-03-14T13:39:22;7.30;99.90
51567;DHT22;37657;53.182;5.638;2023-03-14T13:41:54;7.30;99.90
51567;DHT22;37657;53.182;5.638;2023-03-14T13:46:58;7.20;99.90
51567;DHT22;37657;53.182;5.638;2023-03-14T13:49:25;7.20;99.90
51567;DHT22;37657;53.182;5.638;2023-03-14T13:51:51;7.10;99.90
51567;DHT22;37657;53.182;5.638;2023-03-14T13:54:18;7.00;99.90
51567;DHT22;37657;53.182;5.638;2023-03-14T13:56:44;7.10;99.90
51567;DHT22;37657;53.182;5.638;2023-03-14T13:59:23;7.00;99.90
51567;DHT22;37657;53.182;5.638;2023-03-14T14:01:50;7.20;99.90
51567;DHT22;37657;53.182;5.638;2023-03-14T14:04:19;7.10;99.90
51567;DHT22;37657;53.182;5.638;2023-03-14T14:06:54;7.00;99.90
51567;DHT22;37657;53.182;5.638;2023-03-14T14:12:03;7.00;99.90
51567;DHT22;37657;53.182;5.638;2023-03-14T14:14:56;6.90;99.90
51567;DHT22;37657;53.182;5.638;2023-03-14T14:17:26;6.80;99.90
51567;DHT22;37657;53.182;5.638;2023-03-14T14:19:53;6.60;99.90
51567;DHT22;37657;53.182;5.638;2023-03-14T14:22:20;6.40;99.90
51567;DHT22;37657;53.182;5.638;2023-03-14T14:24:45;6.30;99.90
51567;DHT22;37657;53.182;5.638;2023-03-14T14:27:36;6.20;99.90
51567;DHT22;37657;53.182;5.638;2023-03-14T14:32:45;6.30;99.90
51567;DHT22;37657;53.182;5.638;2023-03-14T14:35:25;6.50;99.90
51567;DHT22;37657;53.182;5.638;2023-03-14T14:37:52;6.70;99.90
51567;DHT22;37657;53.182;5.638;2023-03-14T14:40:23;6.90;99.90
51567;DHT22;37657;53.182;5.638;2023-03-14T14:42:50;7.10;99.90
51567;DHT22;37657;53.182;5.638;2023-03-14T14:45:19;7.10;99.90
51567;DHT22;37657;53.182;5.638;2023-03-14T14:47:53;7.10;99.90
51567;DHT22;37657;53.182;5.638;2023-03-14T14:53:13;7.10;99.90
51567;DHT22;37657;53.182;5.638;2023-03-14T14:55:45;7.00;99.90
51567;DHT22;37657;53.182;5.638;2023-03-14T14:58:32;7.00;99.90
51567;DHT22;37657;53.182;5.638;2023-03-14T15:00:59;7.20;99.90
51567;DHT22;37657;53.182;5.638;2023-03-14T15:03:30;7.10;99.90
51567;DHT22;37657;53.182;5.638;2023-03-14T15:05:56;7.10;99.90
51567;DHT22;37657;53.182;5.638;2023-03-14T15:08:23;6.90;99.90
51567;DHT22;37657;53.182;5.638;2023-03-14T15:10:49;6.50;99.90
51567;DHT22;37657;53.182;5.638;2023-03-14T15:13:14;6.00;99.90
51567;DHT22;37657;53.182;5.638;2023-03-14T15:15:41;5.70;99.90
51567;DHT22;37657;53.182;5.638;2023-03-14T15:18:18;5.60;99.90
51567;DHT22;37657;53.182;5.638;2023-03-14T15:20:44;5.70;99.90
51567;DHT22;37657;53.182;5.638;2023-03-14T15:23:16;5.80;99.90
51567;DHT22;37657;53.182;5.638;2023-03-14T15:25:42;5.90;99.90
51567;DHT22;37657;53.182;5.638;2023-03-14T15:28:18;6.00;99.90
51567;DHT22;37657;53.182;5.638;2023-03-14T15:30:46;6.20;99.90
51567;DHT22;37657;53.182;5.638;2023-03-14T15:33:12;6.40;99.90
51567;DHT22;37657;53.182;5.638;2023-03-14T15:35:38;6.60;99.90
51567;DHT22;37657;53.182;5.638;2023-03-14T15:38:04;6.60;99.90
51567;DHT22;37657;53.182;5.638;2023-03-14T15:40:30;6.60;99.90
51567;DHT22;37657;53.182;5.638;2023-03-14T15:42:56;6.50;99.90
51567;DHT22;37657;53.182;5.638;2023-03-14T15:45:21;6.50;99.90
51567;DHT22;37657;53.182;5.638;2023-03-14T15:47:47;6.50;99.90
51567;DHT22;37657;53.182;5.638;2023-03-14T15:50:12;6.40;99.90
51567;DHT22;37657;53.182;5.638;2023-03-14T15:52:38;6.40;99.90
51567;DHT22;37657;53.182;5.638;2023-03-14T15:55:04;6.40;99.90
51567;DHT22;37657;53.182;5.638;2023-03-14T15:57:30;6.30;99.90
51567;DHT22;37657;53.182;5.638;2023-03-14T15:59:55;6.30;99.90
51567;DHT22;37657;53.182;5.638;2023-03-14T16:02:21;6.30;99.90
51567;DHT22;37657;53.182;5.638;2023-03-14T16:04:47;6.30;99.90
51567;DHT22;37657;53.182;5.638;2023-03-14T16:07:12;6.20;99.90
51567;DHT22;37657;53.182;5.638;2023-03-14T16:09:38;6.10;99.90
51567;DHT22;37657;53.182;5.638;2023-03-14T16:12:03;6.10;99.90
51567;DHT22;37657;53.182;5.638;2023-03-14T16:14:30;6.10;99.90
51567;DHT22;37657;53.182;5.638;2023-03-14T16:16:56;6.10;99.90
51567;DHT22;37657;53.182;5.638;2023-03-14T16:19:24;6.10;99.90
51567;DHT22;37657;53.182;5.638;2023-03-14T16:21:51;6.10;99.90
51567;DHT22;37657;53.182;5.638;2023-03-14T16:24:17;6.10;99.90
51567;DHT22;37657;53.182;5.638;2023-03-14T16:26:43;6.00;99.90
51567;DHT22;37657;53.182;5.638;2023-03-14T16:29:09;6.00;99.90
51567;DHT22;37657;53.182;5.638;2023-03-14T16:31:35;6.00;99.90
51567;DHT22;37657;53.182;5.638;2023-03-14T16:34:09;6.00;99.90
51567;DHT22;37657;53.182;5.638;2023-03-14T16:36:35;5.90;99.90
51567;DHT22;37657;53.182;5.638;2023-03-14T16:39:01;5.90;99.90
51567;DHT22;37657;53.182;5.638;2023-03-14T16:41:26;5.80;99.90
51567;DHT22;37657;53.182;5.638;2023-03-14T16:43:59;5.80;99.90
51567;DHT22;37657;53.182;5.638;2023-03-14T16:46:26;5.80;99.90
51567;DHT22;37657;53.182;5.638;2023-03-14T16:48:53;5.70;99.90
51567;DHT22;37657;53.182;5.638;2023-03-14T16:51:19;5.80;99.90
51567;DHT22;37657;53.182;5.638;2023-03-14T16:53:44;5.70;99.90
51567;DHT22;37657;53.182;5.638;2023-03-14T16:56:10;5.50;99.90